Time;durP1;ratioP1;P1;durP2;ratioP2;P2;SDS_P1;SDS_P2;PMS_P1;PMS_P2;Temp;Humidity;BMP_temperature;BMP_pressure;BME280_temperature;BME280_humidity;BME280_pressure;Samples;Min_cycle;Max_cycle;Signal;HPM_P1;HPM_P2
2022/07/13 00:01:01;;;;;;;39.65;25.77;;;18.20;99.90;;;;;;5036764;28;20117;-71
2022/07/13 00:03:26;;;;;;;43.90;25.65;;;18.10;99.90;;;;;;5036457;28;20037;-72
2022/07/13 00:05:52;;;;;;;48.70;28.85;;;18.10;99.90;;;;;;5037100;28;20026;-72
2022/07/13 00:08:17;;;;;;;38.83;27.63;;;18.30;99.90;;;;;;5036621;28;20584;-71
2022/07/13 00:10:44;;;;;;;39.40;26.63;;;18.20;99.90;;;;;;5036501;28;20102;-72
2022/07/13 00:13:09;;;;;;;33.30;23.85;;;18.30;99.90;;;;;;5036594;28;20105;-72
2022/07/13 00:15:35;;;;;;;35.72;22.85;;;18.30;99.90;;;;;;5036615;28;20076;-71
2022/07/13 00:18:00;;;;;;;37.33;25.30;;;18.20;99.90;;;;;;5037269;28;20381;-71
2022/07/13 00:20:27;;;;;;;35.20;23.90;;;18.20;99.90;;;;;;5037319;28;20032;-71
2022/07/13 00:22:53;;;;;;;41.35;28.05;;;18.30;99.90;;;;;;5036429;28;20025;-72
2022/07/13 00:25:19;;;;;;;45.33;28.15;;;18.30;99.90;;;;;;5036279;28;20032;-72
2022/07/13 00:27:44;;;;;;;46.42;27.23;;;18.30;99.90;;;;;;5036251;28;20018;-72
2022/07/13 00:30:10;;;;;;;37.97;27.95;;;18.20;99.90;;;;;;5036038;28;20100;-71
2022/07/13 00:32:36;;;;;;;41.17;27.60;;;18.20;99.90;;;;;;5036201;28;20109;-71
2022/07/13 00:35:01;;;;;;;42.28;27.80;;;18.20;99.90;;;;;;5036050;28;20029;-72
2022/07/13 00:37:27;;;;;;;46.50;25.67;;;18.20;99.90;;;;;;5036071;28;20517;-72
2022/07/13 00:39:52;;;;;;;44.33;27.38;;;18.20;99.90;;;;;;5036245;28;20029;-72
2022/07/13 00:42:18;;;;;;;31.77;23.10;;;18.20;99.90;;;;;;5035837;28;20061;-72
2022/07/13 00:44:44;;;;;;;40.88;27.92;;;18.20;99.90;;;;;;5036048;28;20432;-72
2022/07/13 00:47:10;;;;;;;36.40;24.70;;;18.10;99.90;;;;;;5035851;28;20036;-71
2022/07/13 00:49:36;;;;;;;31.25;20.35;;;18.10;99.90;;;;;;5036362;28;20013;-72
2022/07/13 00:52:02;;;;;;;41.50;27.33;;;18.10;99.90;;;;;;5035712;28;20381;-72
2022/07/13 00:54:29;;;;;;;39.88;29.63;;;18.10;99.90;;;;;;5035633;28;20041;-72
2022/07/13 00:57:01;;;;;;;50.03;29.40;;;18.00;99.90;;;;;;5035778;28;20071;-72
2022/07/13 00:59:26;;;;;;;39.60;26.13;;;18.10;99.90;;;;;;5035773;28;20148;-72
2022/07/13 01:01:53;;;;;;;47.80;30.58;;;18.00;99.90;;;;;;5034813;28;20480;-72
2022/07/13 01:04:23;;;;;;;42.25;26.77;;;18.10;99.90;;;;;;5060055;22;20046;-71
2022/07/13 01:06:49;;;;;;;45.08;25.98;;;18.20;99.90;;;;;;5035181;28;20022;-71
2022/07/13 01:09:15;;;;;;;42.85;29.67;;;18.20;99.90;;;;;;5035193;28;20018;-71
2022/07/13 01:11:41;;;;;;;40.17;27.38;;;18.20;99.90;;;;;;5035223;28;20524;-71
2022/07/13 01:14:07;;;;;;;42.60;28.15;;;18.20;99.90;;;;;;5035237;28;20029;-73
2022/07/13 01:16:34;;;;;;;40.20;25.55;;;18.20;99.90;;;;;;5035215;28;20413;-72
2022/07/13 01:19:00;;;;;;;34.42;20.55;;;18.20;99.90;;;;;;5035404;28;20036;-72
2022/07/13 01:21:26;;;;;;;34.15;24.77;;;18.10;99.90;;;;;;5034979;28;20034;-73
2022/07/13 01:23:51;;;;;;;37.78;27.17;;;18.00;99.90;;;;;;5034946;28;20017;-72
2022/07/13 01:26:17;;;;;;;38.42;23.25;;;18.10;99.90;;;;;;5034902;28;20032;-73
2022/07/13 01:28:43;;;;;;;41.38;27.30;;;18.10;99.90;;;;;;5034985;28;20026;-72
2022/07/13 01:31:08;;;;;;;51.72;28.58;;;18.10;99.90;;;;;;5035110;28;20029;-73
2022/07/13 01:33:34;;;;;;;41.70;29.55;;;18.10;99.90;;;;;;5034794;28;20079;-73
2022/07/13 01:36:00;;;;;;;46.90;32.55;;;18.20;99.90;;;;;;5034664;28;20461;-73
2022/07/13 01:38:25;;;;;;;56.40;31.85;;;18.30;99.90;;;;;;5034841;28;20022;-73
2022/07/13 01:40:51;;;;;;;42.08;29.00;;;18.30;99.90;;;;;;5034667;28;20034;-73
2022/07/13 01:43:17;;;;;;;48.92;32.83;;;18.30;99.90;;;;;;5034639;28;20037;-72
2022/07/13 01:45:44;;;;;;;53.40;32.88;;;18.30;99.90;;;;;;5034348;28;20492;-72
2022/07/13 01:48:10;;;;;;;55.45;33.45;;;18.30;99.90;;;;;;5034671;28;20033;-72
2022/07/13 01:50:36;;;;;;;49.20;35.42;;;18.30;99.90;;;;;;5034614;28;20026;-72
2022/07/13 01:53:02;;;;;;;57.88;36.95;;;18.30;99.90;;;;;;5034397;28;20102;-72
2022/07/13 01:55:27;;;;;;;67.90;37.25;;;18.30;99.90;;;;;;5034291;28;20393;-72
2022/07/13 01:57:58;;;;;;;52.22;34.80;;;18.20;99.90;;;;;;5034787;28;20025;-72
2022/07/13 02:00:24;;;;;;;57.28;35.42;;;18.30;99.90;;;;;;5034196;28;20025;-72
2022/07/13 02:02:49;;;;;;;49.78;31.95;;;18.20;99.90;;;;;;5034181;28;20033;-72
2022/07/13 02:05:16;;;;;;;50.83;34.95;;;18.30;99.90;;;;;;5034015;28;20421;-72
2022/07/13 02:07:42;;;;;;;56.80;35.72;;;18.30;99.90;;;;;;5034292;28;20508;-73
2022/07/13 02:10:10;;;;;;;44.33;30.50;;;18.30;99.90;;;;;;5034102;28;20109;-73
2022/07/13 02:12:35;;;;;;;44.88;30.83;;;18.20;99.90;;;;;;5034044;28;20445;-72
2022/07/13 02:15:01;;;;;;;48.25;32.67;;;18.20;99.90;;;;;;5033981;28;20053;-73
2022/07/13 02:17:27;;;;;;;41.63;30.45;;;18.20;99.90;;;;;;5034214;28;20025;-72
2022/07/13 02:19:52;;;;;;;48.50;31.35;;;18.20;99.90;;;;;;5034289;28;20121;-73
2022/07/13 02:22:18;;;;;;;51.35;34.88;;;18.10;99.90;;;;;;5033783;28;20428;-72
2022/07/13 02:24:44;;;;;;;51.63;33.65;;;18.20;99.90;;;;;;5033762;28;20022;-72
2022/07/13 02:27:09;;;;;;;42.67;29.48;;;18.20;99.90;;;;;;5033854;28;20129;-72
2022/07/13 02:29:35;;;;;;;56.60;31.65;;;18.20;99.90;;;;;;5033889;28;20029;-72
2022/07/13 02:32:01;;;;;;;46.53;29.73;;;18.30;99.90;;;;;;5033741;28;20033;-72
2022/07/13 02:34:29;;;;;;;52.97;32.22;;;18.20;99.90;;;;;;5033744;28;20029;-72
2022/07/13 02:36:58;;;;;;;50.00;30.17;;;18.20;99.90;;;;;;5033906;28;20496;-72
2022/07/13 02:39:25;;;;;;;42.50;27.42;;;18.20;99.90;;;;;;5033685;28;20120;-72
2022/07/13 02:41:50;;;;;;;52.75;31.25;;;18.30;99.90;;;;;;5033531;28;20115;-72
2022/07/13 02:44:16;;;;;;;57.65;35.13;;;18.30;99.90;;;;;;5033714;28;20438;-73
2022/07/13 02:46:42;;;;;;;48.15;32.17;;;18.30;99.90;;;;;;5033765;28;20029;-73
2022/07/13 02:49:08;;;;;;;54.42;32.42;;;18.30;99.90;;;;;;5033510;28;20029;-73
2022/07/13 02:51:35;;;;;;;38.10;23.70;;;18.30;99.90;;;;;;5033475;28;20092;-73
2022/07/13 02:54:01;;;;;;;45.30;29.85;;;18.20;99.90;;;;;;5033448;28;20026;-72
2022/07/13 02:56:26;;;;;;;42.85;29.13;;;18.30;99.90;;;;;;5033753;28;20554;-73
2022/07/13 02:58:52;;;;;;;49.35;33.60;;;18.30;99.90;;;;;;5033506;28;20057;-73
2022/07/13 03:01:18;;;;;;;60.80;37.38;;;18.30;99.90;;;;;;5033838;28;20022;-72
2022/07/13 03:03:43;;;;;;;55.17;32.08;;;18.30;99.90;;;;;;5033713;28;20017;-72
2022/07/13 03:06:09;;;;;;;38.70;25.92;;;18.30;99.90;;;;;;5033909;28;20036;-72
2022/07/13 03:08:34;;;;;;;48.80;30.85;;;18.30;99.90;;;;;;5033404;28;20078;-72
2022/07/13 03:11:00;;;;;;;41.65;28.52;;;18.30;99.90;;;;;;5033451;28;20053;-72
2022/07/13 03:13:25;;;;;;;46.00;31.25;;;18.30;99.90;;;;;;5033560;28;20096;-72
2022/07/13 03:15:51;;;;;;;58.63;33.10;;;18.30;99.90;;;;;;5033314;28;20033;-72
2022/07/13 03:18:16;;;;;;;44.72;29.77;;;18.20;99.90;;;;;;5033770;28;20033;-72
2022/07/13 03:20:42;;;;;;;46.45;29.95;;;18.30;99.90;;;;;;5033450;28;20052;-72
2022/07/13 03:23:08;;;;;;;46.10;31.58;;;18.30;99.90;;;;;;5033649;28;20378;-72
2022/07/13 03:25:33;;;;;;;45.03;31.00;;;18.30;99.90;;;;;;5035115;28;20029;-73
2022/07/13 03:27:59;;;;;;;42.90;28.05;;;18.30;99.90;;;;;;5037226;28;20072;-72
2022/07/13 03:30:25;;;;;;;65.05;34.33;;;18.30;99.90;;;;;;5037598;28;20018;-73
2022/07/13 03:32:50;;;;;;;51.33;34.88;;;18.30;99.90;;;;;;5037560;28;20044;-73
2022/07/13 03:35:16;;;;;;;59.65;37.45;;;18.30;99.90;;;;;;5037021;28;20037;-73
2022/07/13 03:37:41;;;;;;;62.45;40.13;;;18.30;99.90;;;;;;5037233;28;20037;-73
2022/07/13 03:40:08;;;;;;;60.03;38.40;;;18.20;99.90;;;;;;5036926;28;20075;-73
2022/07/13 03:42:34;;;;;;;62.33;40.38;;;18.20;99.90;;;;;;5036994;28;20465;-73
2022/07/13 03:45:00;;;;;;;57.42;36.30;;;18.10;99.90;;;;;;5036860;28;20052;-73
2022/07/13 03:47:26;;;;;;;70.28;44.75;;;18.10;99.90;;;;;;5036671;28;20045;-73
2022/07/13 03:49:51;;;;;;;70.40;42.15;;;18.10;99.90;;;;;;5036809;28;20051;-73
2022/07/13 03:52:17;;;;;;;65.90;40.97;;;18.10;99.90;;;;;;5037168;28;20032;-73
2022/07/13 03:54:42;;;;;;;77.25;48.50;;;18.10;99.90;;;;;;5036612;28;20477;-71
2022/07/13 03:57:08;;;;;;;71.40;46.33;;;18.10;99.90;;;;;;5036563;28;20022;-71
2022/07/13 03:59:34;;;;;;;84.25;49.60;;;18.10;99.90;;;;;;5036723;28;20175;-71
2022/07/13 04:02:00;;;;;;;91.15;55.00;;;18.10;99.90;;;;;;5036237;28;20033;-71
2022/07/13 04:04:27;;;;;;;92.72;47.85;;;18.20;99.90;;;;;;5036253;28;20029;-72
2022/07/13 04:06:53;;;;;;;102.15;52.70;;;18.20;99.90;;;;;;5036602;28;20068;-72
2022/07/13 04:09:18;;;;;;;91.43;54.33;;;18.10;99.90;;;;;;5036503;28;20029;-72
2022/07/13 04:11:44;;;;;;;80.90;50.50;;;18.20;99.90;;;;;;5036504;28;20026;-72
2022/07/13 04:14:09;;;;;;;82.15;48.60;;;18.20;99.90;;;;;;5036204;28;20075;-72
2022/07/13 04:16:35;;;;;;;74.75;43.70;;;18.20;99.90;;;;;;5036461;28;20052;-72
2022/07/13 04:19:00;;;;;;;91.10;50.10;;;18.20;99.90;;;;;;5036168;28;20435;-72
2022/07/13 04:21:26;;;;;;;69.05;44.85;;;18.30;99.90;;;;;;5036152;28;20033;-72
2022/07/13 04:23:51;;;;;;;58.08;36.22;;;18.20;99.90;;;;;;5036223;28;20393;-72
2022/07/13 04:26:17;;;;;;;53.50;29.95;;;18.20;99.90;;;;;;5036046;28;20032;-71
2022/07/13 04:28:43;;;;;;;73.75;42.13;;;18.20;99.90;;;;;;5036230;28;20028;-71
2022/07/13 04:31:08;;;;;;;67.55;39.97;;;18.20;99.90;;;;;;5036421;28;20022;-71
2022/07/13 04:33:34;;;;;;;59.22;40.17;;;18.20;99.90;;;;;;5035784;28;20028;-71
2022/07/13 04:35:59;;;;;;;63.60;40.88;;;18.10;99.90;;;;;;5035445;28;20067;-71
2022/07/13 04:38:25;;;;;;;54.70;35.97;;;18.20;99.90;;;;;;5035220;28;20056;-71
2022/07/13 04:40:51;;;;;;;55.65;33.95;;;18.20;99.90;;;;;;5036083;28;20482;-71
2022/07/13 04:43:16;;;;;;;50.85;34.63;;;18.10;99.90;;;;;;5035603;28;20029;-71
2022/07/13 04:45:42;;;;;;;53.53;32.42;;;18.10;99.90;;;;;;5035970;28;20434;-71
2022/07/13 04:48:07;;;;;;;50.65;31.77;;;18.10;99.90;;;;;;5035769;28;20021;-71
2022/07/13 04:50:33;;;;;;;43.47;30.58;;;18.10;99.90;;;;;;5035878;28;20037;-71
2022/07/13 04:52:58;;;;;;;43.72;28.02;;;18.10;99.90;;;;;;5035699;28;20041;-72
2022/07/13 04:55:24;;;;;;;55.00;34.38;;;18.10;99.90;;;;;;5035477;28;20048;-72
2022/07/13 04:57:50;;;;;;;42.45;28.77;;;18.10;99.90;;;;;;5035788;28;20393;-72
2022/07/13 05:00:16;;;;;;;39.33;25.08;;;18.10;99.90;;;;;;5035399;28;20029;-72
2022/07/13 05:02:42;;;;;;;35.78;22.85;;;18.10;99.90;;;;;;5035480;28;20021;-72
2022/07/13 05:05:08;;;;;;;35.78;24.52;;;18.10;99.90;;;;;;5035242;28;20508;-72
2022/07/13 05:07:33;;;;;;;42.15;28.13;;;18.20;99.90;;;;;;5035763;28;20025;-72
2022/07/13 05:09:59;;;;;;;41.03;27.10;;;18.20;99.90;;;;;;5035474;28;20532;-72
2022/07/13 05:12:24;;;;;;;42.30;26.42;;;18.20;99.90;;;;;;5035389;28;20366;-73
2022/07/13 05:14:50;;;;;;;48.05;32.92;;;18.20;99.90;;;;;;5035367;28;20032;-73
2022/07/13 05:17:16;;;;;;;57.10;35.25;;;18.20;99.90;;;;;;5035094;28;20500;-72
2022/07/13 05:19:42;;;;;;;55.53;37.80;;;18.20;99.90;;;;;;5035342;28;20059;-73
2022/07/13 05:22:07;;;;;;;53.65;33.92;;;18.20;99.90;;;;;;5035007;28;20032;-73
2022/07/13 05:24:33;;;;;;;72.20;37.53;;;18.20;99.90;;;;;;5034909;28;20021;-73
2022/07/13 05:26:59;;;;;;;60.08;36.25;;;18.20;99.90;;;;;;5033682;28;20021;-72
2022/07/13 05:29:24;;;;;;;61.25;37.22;;;18.20;99.90;;;;;;5034914;28;20033;-73
2022/07/13 05:31:50;;;;;;;64.10;40.83;;;18.10;99.90;;;;;;5034993;28;20037;-73
2022/07/13 05:34:15;;;;;;;65.88;42.08;;;18.10;99.90;;;;;;5034835;28;20405;-73
2022/07/13 05:36:41;;;;;;;59.45;37.55;;;18.10;99.90;;;;;;5035013;28;20525;-73
2022/07/13 05:39:06;;;;;;;60.88;39.33;;;18.00;99.90;;;;;;5035020;28;20079;-73
2022/07/13 05:41:35;;;;;;;51.17;33.25;;;18.00;99.90;;;;;;5033569;28;20044;-73
2022/07/13 05:44:00;;;;;;;48.47;30.60;;;18.00;99.90;;;;;;5034894;28;20041;-73
2022/07/13 05:46:27;;;;;;;50.30;31.35;;;18.00;99.90;;;;;;5034791;28;20358;-72
2022/07/13 05:48:52;;;;;;;42.75;28.38;;;18.00;99.90;;;;;;5034158;28;20022;-72
2022/07/13 05:51:18;;;;;;;36.15;24.58;;;18.10;99.90;;;;;;5034556;28;20024;-71
2022/07/13 05:53:46;;;;;;;38.63;28.13;;;18.10;99.90;;;;;;5034829;28;20025;-71
2022/07/13 05:56:11;;;;;;;37.72;25.25;;;18.10;99.90;;;;;;5034595;28;20037;-72
2022/07/13 05:58:37;;;;;;;34.92;23.45;;;18.20;99.90;;;;;;5034290;28;20018;-72
2022/07/13 06:01:02;;;;;;;46.75;30.42;;;18.20;99.90;;;;;;5034290;28;20022;-72
2022/07/13 06:03:28;;;;;;;39.58;25.67;;;18.20;99.90;;;;;;5034230;28;20029;-71
2022/07/13 06:05:54;;;;;;;33.20;24.80;;;18.30;99.90;;;;;;5033969;28;20509;-71
2022/07/13 06:08:20;;;;;;;60.65;37.42;;;18.30;99.90;;;;;;5033985;28;20022;-71
2022/07/13 06:10:45;;;;;;;40.95;29.80;;;18.30;99.90;;;;;;5034012;28;20071;-71
2022/07/13 06:13:11;;;;;;;50.17;33.15;;;18.30;99.90;;;;;;5034450;28;20025;-71
2022/07/13 06:15:36;;;;;;;32.60;24.35;;;18.50;99.90;;;;;;5033858;28;20052;-71
2022/07/13 06:18:02;;;;;;;27.52;20.05;;;18.50;99.90;;;;;;5033896;28;20017;-71
2022/07/13 06:20:28;;;;;;;35.20;24.13;;;18.50;99.90;;;;;;5033892;28;20060;-70
2022/07/13 06:23:11;;;;;;;52.40;34.42;;;18.60;99.90;;;;;;5033814;28;20025;-71
2022/07/13 06:25:38;;;;;;;49.97;28.63;;;18.60;99.90;;;;;;5033845;28;20079;-71
2022/07/13 06:28:05;;;;;;;57.38;34.58;;;18.60;99.90;;;;;;5033696;28;20036;-70
2022/07/13 06:30:30;;;;;;;40.33;28.73;;;18.60;99.90;;;;;;5033644;28;20048;-71
2022/07/13 06:32:56;;;;;;;34.85;23.38;;;18.60;99.90;;;;;;5033898;28;20021;-71
2022/07/13 06:35:22;;;;;;;35.58;24.73;;;18.70;99.90;;;;;;5033747;28;20477;-71
2022/07/13 06:37:48;;;;;;;34.70;22.90;;;18.70;99.90;;;;;;5033828;28;20108;-70
2022/07/13 06:40:13;;;;;;;35.30;25.35;;;18.70;99.90;;;;;;5033527;28;20057;-71
2022/07/13 06:42:39;;;;;;;28.70;20.38;;;18.60;99.90;;;;;;5033765;28;20516;-71
2022/07/13 06:45:05;;;;;;;41.55;27.60;;;18.60;99.90;;;;;;5033816;28;20097;-73
2022/07/13 06:47:31;;;;;;;39.33;28.90;;;18.60;99.90;;;;;;5033775;28;20072;-73
2022/07/13 06:49:56;;;;;;;33.67;23.45;;;18.50;99.90;;;;;;5033657;28;20025;-73
2022/07/13 06:52:22;;;;;;;38.47;27.38;;;18.50;99.90;;;;;;5034213;28;20068;-73
2022/07/13 06:54:47;;;;;;;44.00;27.40;;;18.50;99.90;;;;;;5033538;28;20129;-73
2022/07/13 06:57:13;;;;;;;48.47;30.85;;;18.50;99.90;;;;;;5033535;28;20032;-73
2022/07/13 06:59:38;;;;;;;35.03;23.75;;;18.50;99.90;;;;;;5032688;28;20395;-73
2022/07/13 07:02:04;;;;;;;33.15;23.73;;;18.60;99.90;;;;;;5033686;28;20032;-72
2022/07/13 07:04:29;;;;;;;44.60;28.25;;;18.70;99.90;;;;;;5073874;23;20124;-71
2022/07/13 07:06:56;;;;;;;48.00;29.10;;;18.90;99.90;;;;;;5033699;28;20029;-72
2022/07/13 07:09:22;;;;;;;28.90;19.83;;;19.00;99.90;;;;;;5048800;28;20027;-72
2022/07/13 07:11:48;;;;;;;34.63;22.65;;;19.20;99.90;;;;;;5053710;28;20024;-72
2022/07/13 07:14:14;;;;;;;33.55;23.60;;;19.30;99.90;;;;;;5053453;28;20029;-71
2022/07/13 07:16:40;;;;;;;31.70;22.00;;;19.40;99.90;;;;;;5052223;28;20025;-72
2022/07/13 07:19:05;;;;;;;37.03;24.65;;;19.30;99.90;;;;;;5053314;28;20029;-71
2022/07/13 07:21:31;;;;;;;24.95;17.77;;;19.40;99.90;;;;;;5053640;28;20472;-71
2022/07/13 07:23:56;;;;;;;27.20;19.60;;;19.40;99.90;;;;;;5053327;28;20021;-71
2022/07/13 07:26:22;;;;;;;29.95;21.25;;;19.40;99.90;;;;;;5053607;28;20041;-71
2022/07/13 07:28:47;;;;;;;27.38;19.20;;;19.50;99.90;;;;;;5053729;28;20032;-71
2022/07/13 07:31:13;;;;;;;34.53;23.13;;;19.60;99.90;;;;;;5053409;28;20017;-71
2022/07/13 07:33:39;;;;;;;37.67;23.15;;;19.80;99.90;;;;;;5053333;28;20029;-71
2022/07/13 07:36:05;;;;;;;30.00;19.58;;;19.70;99.90;;;;;;5030600;28;20071;-71
2022/07/13 07:38:31;;;;;;;29.42;18.70;;;19.70;99.90;;;;;;5020762;28;20018;-72
2022/07/13 07:40:58;;;;;;;34.30;21.85;;;19.90;99.90;;;;;;5033389;28;20036;-71
2022/07/13 07:43:24;;;;;;;30.25;22.33;;;20.10;99.90;;;;;;5024798;28;20106;-71
2022/07/13 07:45:49;;;;;;;29.42;21.00;;;20.10;99.90;;;;;;5013510;28;20092;-72
2022/07/13 07:48:15;;;;;;;28.05;20.30;;;20.20;99.90;;;;;;5023764;28;20080;-71
2022/07/13 07:50:40;;;;;;;32.55;22.60;;;20.50;99.90;;;;;;5033805;28;20021;-71
2022/07/13 07:53:06;;;;;;;31.17;21.70;;;20.50;99.90;;;;;;5040576;28;20021;-71
2022/07/13 07:55:32;;;;;;;28.25;22.63;;;20.60;99.90;;;;;;5053254;28;20036;-71
2022/07/13 07:57:58;;;;;;;25.85;20.55;;;20.80;99.90;;;;;;5053084;28;20519;-71
2022/07/13 08:00:24;;;;;;;27.83;18.98;;;20.90;99.90;;;;;;5053224;28;20438;-71
2022/07/13 08:02:50;;;;;;;23.52;18.40;;;20.90;99.90;;;;;;5053083;28;20116;-71
2022/07/13 08:05:16;;;;;;;30.13;18.10;;;21.10;99.90;;;;;;5053008;28;20039;-71
2022/07/13 08:07:43;;;;;;;26.98;18.85;;;21.40;99.90;;;;;;5053120;28;20104;-71
2022/07/13 08:10:10;;;;;;;21.65;16.83;;;21.50;99.90;;;;;;5052961;28;20100;-71
2022/07/13 08:12:35;;;;;;;26.35;15.73;;;21.80;99.90;;;;;;5056262;28;20025;-71
2022/07/13 08:15:01;;;;;;;20.77;17.02;;;21.90;99.90;;;;;;5056624;28;20025;-71
2022/07/13 08:17:27;;;;;;;21.02;15.27;;;22.00;99.90;;;;;;5057142;28;20040;-71
2022/07/13 08:19:52;;;;;;;25.63;16.33;;;22.00;99.90;;;;;;5056762;28;20025;-71
2022/07/13 08:22:18;;;;;;;26.27;14.57;;;22.00;99.90;;;;;;5056724;28;20473;-71
2022/07/13 08:24:43;;;;;;;16.50;12.93;;;22.10;99.90;;;;;;5056334;28;20392;-71
2022/07/13 08:27:09;;;;;;;18.30;13.57;;;22.30;99.90;;;;;;5056610;28;20025;-71
2022/07/13 08:29:34;;;;;;;20.77;12.70;;;22.30;99.90;;;;;;5056566;28;20099;-72
2022/07/13 08:32:00;;;;;;;15.32;11.52;;;22.30;99.90;;;;;;5056111;28;20021;-71
2022/07/13 08:39:54;;;;;;;14.15;9.15;;;23.10;99.90;;;;;;5056559;28;20059;-72
2022/07/13 08:42:20;;;;;;;13.98;10.27;;;23.20;99.90;;;;;;5055803;28;20029;-72
2022/07/13 08:44:45;;;;;;;16.92;10.30;;;23.50;99.90;;;;;;5055963;28;20465;-72
2022/07/13 08:47:11;;;;;;;13.43;9.43;;;23.50;99.90;;;;;;5055970;28;20025;-72
2022/07/13 08:49:37;;;;;;;8.55;6.50;;;23.60;99.90;;;;;;5056110;28;20021;-72
2022/07/13 08:52:03;;;;;;;8.60;6.43;;;23.50;99.90;;;;;;5056013;28;20021;-72
2022/07/13 08:54:29;;;;;;;9.50;7.18;;;23.70;99.90;;;;;;5055626;28;20036;-72
2022/07/13 08:56:55;;;;;;;9.80;5.93;;;23.80;99.90;;;;;;5056691;28;20017;-72
2022/07/13 08:59:21;;;;;;;11.85;8.23;;;23.80;99.90;;;;;;5055989;28;20025;-71
2022/07/13 09:01:49;;;;;;;15.52;7.95;;;23.80;99.90;;;;;;5055953;28;20029;-72
2022/07/13 09:04:14;;;;;;;11.00;7.53;;;23.80;99.90;;;;;;5055532;28;20051;-70
2022/07/13 09:06:42;;;;;;;16.17;8.43;;;23.70;99.90;;;;;;5056050;28;20086;-72
2022/07/13 09:09:33;;;;;;;13.68;8.60;;;23.70;99.90;;;;;;5056089;28;20017;-72
2022/07/13 09:12:15;;;;;;;10.88;7.78;;;23.80;99.90;;;;;;5056018;28;20057;-72
2022/07/13 09:14:41;;;;;;;13.88;7.28;;;23.70;99.90;;;;;;5055631;28;20040;-72
2022/07/13 09:17:06;;;;;;;15.77;7.00;;;23.70;99.90;;;;;;5054645;28;20025;-72
2022/07/13 09:19:39;;;;;;;11.68;7.20;;;23.80;99.90;;;;;;5055896;28;20072;-72
2022/07/13 09:22:09;;;;;;;9.93;6.43;;;23.80;99.90;;;;;;5055580;28;20021;-72
2022/07/13 09:24:45;;;;;;;7.18;6.10;;;24.00;99.90;;;;;;5054956;28;20080;-72
2022/07/13 09:27:11;;;;;;;8.98;4.45;;;24.00;99.90;;;;;;5054831;28;20028;-72
2022/07/13 09:29:37;;;;;;;11.70;6.70;;;24.10;99.90;;;;;;5035563;28;20017;-72
2022/07/13 09:32:07;;;;;;;8.60;6.88;;;24.00;99.90;;;;;;5035664;28;20032;-72
2022/07/13 09:34:52;;;;;;;16.38;8.48;;;24.10;99.90;;;;;;5036515;28;20374;-72
2022/07/13 09:37:21;;;;;;;12.02;6.45;;;24.00;99.90;;;;;;5055235;28;20021;-73
2022/07/13 09:40:07;;;;;;;8.70;6.05;;;23.90;99.90;;;;;;5055104;28;20043;-71
2022/07/13 09:42:34;;;;;;;11.30;7.82;;;24.10;99.90;;;;;;5053718;28;20032;-71
2022/07/13 09:47:53;;;;;;;10.55;7.05;;;24.00;99.90;;;;;;5055283;28;20385;-71
2022/07/13 09:50:23;;;;;;;11.35;5.90;;;24.10;99.90;;;;;;5054998;28;20059;-71
2022/07/13 09:52:50;;;;;;;21.33;6.72;;;24.40;99.90;;;;;;5051052;28;20018;-71
2022/07/13 09:55:20;;;;;;;9.68;5.47;;;24.70;99.90;;;;;;5033629;28;20067;-71
2022/07/13 09:58:07;;;;;;;8.80;5.82;;;24.80;99.90;;;;;;5034838;28;20109;-71
2022/07/13 10:00:33;;;;;;;10.43;5.25;;;24.80;99.90;;;;;;5034559;28;20029;-71
2022/07/13 10:02:59;;;;;;;16.38;7.03;;;25.00;99.90;;;;;;5034610;28;20080;-71
2022/07/13 10:05:25;;;;;;;9.45;5.18;;;24.90;99.90;;;;;;5034789;28;20043;-71
2022/07/13 10:07:52;;;;;;;7.15;5.25;;;24.80;99.90;;;;;;5034539;28;20041;-71
2022/07/13 10:10:17;;;;;;;7.82;4.88;;;25.20;99.90;;;;;;5034533;28;20018;-71
2022/07/13 10:12:44;;;;;;;8.75;5.85;;;25.10;99.90;;;;;;5034355;28;20033;-71
2022/07/13 10:15:12;;;;;;;12.55;5.10;;;24.80;99.90;;;;;;5034522;28;20051;-71
2022/07/13 10:17:40;;;;;;;8.20;5.65;;;24.80;99.90;;;;;;5034227;28;20051;-71
2022/07/13 10:20:09;;;;;;;6.95;4.55;;;25.10;99.90;;;;;;5034256;28;20029;-71
2022/07/13 10:22:39;;;;;;;15.48;5.80;;;24.90;99.90;;;;;;5034300;28;20021;-71
2022/07/13 10:25:06;;;;;;;9.57;5.50;;;24.80;99.90;;;;;;5034130;28;20022;-71
2022/07/13 10:27:33;;;;;;;10.63;6.28;;;24.90;99.90;;;;;;5034237;28;20018;-71
2022/07/13 10:30:02;;;;;;;8.55;5.07;;;24.50;99.90;;;;;;5034016;28;20055;-71
2022/07/13 10:32:33;;;;;;;8.50;4.43;;;24.30;99.90;;;;;;5032875;28;20576;-70
2022/07/13 10:35:01;;;;;;;11.73;6.28;;;24.60;99.90;;;;;;5033278;28;20040;-71
2022/07/13 10:37:27;;;;;;;8.45;5.60;;;24.40;99.90;;;;;;5034095;28;20079;-71
2022/07/13 10:40:15;;;;;;;14.00;5.20;;;24.70;99.90;;;;;;5034218;28;20035;-71
2022/07/13 10:42:53;;;;;;;9.35;6.13;;;24.90;99.90;;;;;;5034248;28;20504;-71
2022/07/13 10:45:34;;;;;;;9.93;5.45;;;25.30;99.90;;;;;;5033774;28;20116;-71
2022/07/13 10:48:02;;;;;;;17.58;6.85;;;25.60;99.90;;;;;;5033937;28;20021;-72
2022/07/13 10:50:38;;;;;;;13.73;7.63;;;25.30;99.90;;;;;;5033893;28;20017;-71
2022/07/13 10:53:03;;;;;;;11.00;7.30;;;25.10;99.90;;;;;;5034054;28;20025;-71
2022/07/13 10:55:35;;;;;;;16.45;6.80;;;25.30;99.90;;;;;;5033808;28;20036;-71
2022/07/13 10:58:32;;;;;;;10.40;6.57;;;25.40;99.90;;;;;;5034084;28;20022;-71
2022/07/13 11:01:00;;;;;;;14.57;5.47;;;25.00;99.90;;;;;;5034379;28;20053;-71
2022/07/13 11:03:43;;;;;;;11.02;4.78;;;24.90;99.90;;;;;;5033658;28;20032;-71
2022/07/13 11:06:13;;;;;;;;;;;24.50;99.90;;;;;;5033508;28;20030;-71
2022/07/13 11:08:39;;;;;;;19.00;5.72;;;24.20;99.90;;;;;;5031537;28;20360;-70
2022/07/13 11:11:18;;;;;;;20.38;6.10;;;23.90;99.90;;;;;;5032922;28;20033;-71
2022/07/13 11:13:45;;;;;;;8.75;4.57;;;23.80;99.90;;;;;;5033171;28;20048;-71
2022/07/13 11:16:13;;;;;;;7.68;4.63;;;23.90;99.90;;;;;;5032744;28;20083;-71
2022/07/13 11:18:41;;;;;;;8.95;4.35;;;24.00;99.90;;;;;;5032976;28;20032;-71
2022/07/13 11:21:10;;;;;;;7.40;4.38;;;24.00;99.90;;;;;;5033322;28;20021;-71
2022/07/13 11:26:34;;;;;;;9.77;3.55;;;24.30;99.90;;;;;;5033050;28;20036;-71
2022/07/13 11:29:12;;;;;;;11.68;3.83;;;24.10;99.90;;;;;;5014751;28;20030;-71
2022/07/13 11:31:39;;;;;;;7.70;2.97;;;23.70;99.90;;;;;;5013618;28;20022;-71
2022/07/13 11:34:06;;;;;;;6.88;3.55;;;23.40;99.90;;;;;;5013181;28;20085;-71
2022/07/13 11:36:32;;;;;;;6.90;3.13;;;23.20;99.90;;;;;;5013315;28;20026;-71
2022/07/13 11:38:58;;;;;;;5.30;2.83;;;23.30;99.90;;;;;;5012819;28;20026;-71
2022/07/13 11:41:23;;;;;;;9.77;3.55;;;23.50;99.90;;;;;;5012760;28;20063;-71
2022/07/13 11:43:53;;;;;;;4.88;3.38;;;23.60;99.90;;;;;;5012574;28;20063;-71
2022/07/13 11:46:23;;;;;;;6.22;4.20;;;23.60;99.90;;;;;;5014269;28;20022;-71
2022/07/13 11:49:01;;;;;;;8.25;3.95;;;23.90;99.90;;;;;;5016097;28;20054;-71
2022/07/13 11:51:27;;;;;;;5.10;3.03;;;24.10;99.90;;;;;;5016018;28;20096;-71
2022/07/13 11:53:53;;;;;;;5.18;3.17;;;24.40;99.90;;;;;;5017211;28;20032;-71
2022/07/13 11:56:19;;;;;;;4.85;2.50;;;24.40;99.90;;;;;;5015751;28;20105;-71
2022/07/13 11:58:47;;;;;;;7.45;2.78;;;24.40;99.90;;;;;;5016078;28;20060;-71
2022/07/13 12:01:15;;;;;;;12.68;2.83;;;24.20;99.90;;;;;;5016111;28;20118;-71
2022/07/13 12:03:45;;;;;;;8.40;3.22;;;24.30;99.90;;;;;;5015999;28;20022;-71
2022/07/13 12:06:11;;;;;;;6.82;2.85;;;24.60;99.90;;;;;;4979384;28;1102002;-71
2022/07/13 12:08:41;;;;;;;9.93;3.58;;;24.70;99.90;;;;;;5015710;28;20025;-71
2022/07/13 12:11:17;;;;;;;6.93;4.03;;;24.90;99.90;;;;;;5017087;28;20054;-71
2022/07/13 12:13:45;;;;;;;5.72;3.08;;;24.80;99.90;;;;;;5017140;28;20032;-71
2022/07/13 12:16:14;;;;;;;7.85;3.03;;;25.10;99.90;;;;;;5017098;28;20029;-71
2022/07/13 12:19:03;;;;;;;6.93;2.65;;;25.20;99.90;;;;;;5016831;28;20390;-72
2022/07/13 12:21:30;;;;;;;5.85;2.65;;;25.00;99.90;;;;;;5017025;28;20018;-72
2022/07/13 12:23:57;;;;;;;6.82;2.17;;;24.80;99.90;;;;;;5027171;28;20095;-72
2022/07/13 12:26:23;;;;;;;6.20;2.50;;;24.50;99.90;;;;;;5036289;28;20021;-71
2022/07/13 12:28:49;;;;;;;7.65;2.72;;;24.60;99.90;;;;;;5026216;28;20084;-72
2022/07/13 12:31:19;;;;;;;5.03;2.10;;;24.50;99.90;;;;;;5016624;28;20022;-71
2022/07/13 12:33:46;;;;;;;8.55;2.50;;;24.90;99.90;;;;;;5017289;28;20049;-72
2022/07/13 12:36:13;;;;;;;5.15;2.60;;;25.20;99.90;;;;;;5016289;28;20022;-72
2022/07/13 12:38:57;;;;;;;3.95;2.28;;;24.90;99.90;;;;;;5016569;28;20033;-71
2022/07/13 12:41:28;;;;;;;9.15;1.88;;;24.20;99.90;;;;;;5015155;28;20033;-72
2022/07/13 12:44:02;;;;;;;5.95;2.03;;;24.10;99.90;;;;;;5015517;28;20571;-71